sensor_id;sensor_type;location;lat;lon;timestamp;P1;durP1;ratioP1;P2;durP2;ratioP2
16101;SDS011;56411;52.964;10.540;2024-03-06T00:01:58;23.40;;;11.93;;
16101;SDS011;56411;52.964;10.540;2024-03-06T00:04:25;22.87;;;11.83;;
16101;SDS011;56411;52.964;10.540;2024-03-06T00:06:54;21.43;;;11.60;;
16101;SDS011;56411;52.964;10.540;2024-03-06T00:09:22;22.33;;;11.60;;
16101;SDS011;56411;52.964;10.540;2024-03-06T00:11:52;22.87;;;12.27;;
16101;SDS011;56411;52.964;10.540;2024-03-06T00:14:19;21.23;;;11.50;;
16101;SDS011;56411;52.964;10.540;2024-03-06T00:16:47;21.83;;;11.23;;
16101;SDS011;56411;52.964;10.540;2024-03-06T00:19:15;22.13;;;11.67;;
16101;SDS011;56411;52.964;10.540;2024-03-06T00:21:42;21.00;;;11.10;;
16101;SDS011;56411;52.964;10.540;2024-03-06T00:24:12;22.33;;;12.23;;
16101;SDS011;56411;52.964;10.540;2024-03-06T00:26:40;21.10;;;10.93;;
16101;SDS011;56411;52.964;10.540;2024-03-06T00:29:08;20.70;;;10.90;;
16101;SDS011;56411;52.964;10.540;2024-03-06T00:31:35;22.80;;;12.10;;
16101;SDS011;56411;52.964;10.540;2024-03-06T00:34:02;26.77;;;12.37;;
16101;SDS011;56411;52.964;10.540;2024-03-06T00:36:29;24.13;;;12.17;;
16101;SDS011;56411;52.964;10.540;2024-03-06T00:38:56;22.63;;;11.83;;
16101;SDS011;56411;52.964;10.540;2024-03-06T00:41:25;19.00;;;11.00;;
16101;SDS011;56411;52.964;10.540;2024-03-06T00:43:52;24.43;;;11.70;;
16101;SDS011;56411;52.964;10.540;2024-03-06T00:46:19;23.80;;;11.90;;
16101;SDS011;56411;52.964;10.540;2024-03-06T00:48:47;23.37;;;12.00;;
16101;SDS011;56411;52.964;10.540;2024-03-06T00:51:14;21.53;;;11.77;;
16101;SDS011;56411;52.964;10.540;2024-03-06T00:53:41;24.80;;;11.50;;
16101;SDS011;56411;52.964;10.540;2024-03-06T00:56:08;19.73;;;11.03;;
16101;SDS011;56411;52.964;10.540;2024-03-06T00:58:36;21.87;;;11.73;;
16101;SDS011;56411;52.964;10.540;2024-03-06T01:01:03;21.83;;;11.80;;
16101;SDS011;56411;52.964;10.540;2024-03-06T01:03:31;21.80;;;11.97;;
16101;SDS011;56411;52.964;10.540;2024-03-06T01:05:58;23.30;;;12.10;;
16101;SDS011;56411;52.964;10.540;2024-03-06T01:08:25;22.87;;;12.00;;
16101;SDS011;56411;52.964;10.540;2024-03-06T01:10:52;23.97;;;12.60;;
16101;SDS011;56411;52.964;10.540;2024-03-06T01:13:19;25.67;;;12.57;;
16101;SDS011;56411;52.964;10.540;2024-03-06T01:15:48;23.57;;;12.33;;
16101;SDS011;56411;52.964;10.540;2024-03-06T01:18:15;24.00;;;12.77;;
16101;SDS011;56411;52.964;10.540;2024-03-06T01:20:42;22.67;;;12.27;;
16101;SDS011;56411;52.964;10.540;2024-03-06T01:23:09;22.80;;;12.57;;
16101;SDS011;56411;52.964;10.540;2024-03-06T01:25:36;24.00;;;12.73;;
16101;SDS011;56411;52.964;10.540;2024-03-06T01:28:03;20.50;;;11.33;;
16101;SDS011;56411;52.964;10.540;2024-03-06T01:30:30;21.97;;;11.13;;
16101;SDS011;56411;52.964;10.540;2024-03-06T01:32:58;22.00;;;12.07;;
16101;SDS011;56411;52.964;10.540;2024-03-06T01:35:26;23.73;;;12.10;;
16101;SDS011;56411;52.964;10.540;2024-03-06T01:37:53;22.77;;;11.97;;
16101;SDS011;56411;52.964;10.540;2024-03-06T01:40:20;21.40;;;11.80;;
16101;SDS011;56411;52.964;10.540;2024-03-06T01:42:47;23.53;;;11.80;;
16101;SDS011;56411;52.964;10.540;2024-03-06T01:45:15;23.03;;;11.93;;
16101;SDS011;56411;52.964;10.540;2024-03-06T01:47:42;23.10;;;11.60;;
16101;SDS011;56411;52.964;10.540;2024-03-06T01:50:10;21.50;;;11.60;;
16101;SDS011;56411;52.964;10.540;2024-03-06T01:52:38;21.07;;;11.43;;
16101;SDS011;56411;52.964;10.540;2024-03-06T01:55:08;21.37;;;10.93;;
16101;SDS011;56411;52.964;10.540;2024-03-06T01:57:36;21.80;;;11.10;;
16101;SDS011;56411;52.964;10.540;2024-03-06T02:00:06;20.53;;;11.93;;
16101;SDS011;56411;52.964;10.540;2024-03-06T02:02:39;21.90;;;11.33;;
16101;SDS011;56411;52.964;10.540;2024-03-06T02:05:07;22.73;;;11.83;;
16101;SDS011;56411;52.964;10.540;2024-03-06T02:07:37;21.00;;;11.53;;
16101;SDS011;56411;52.964;10.540;2024-03-06T02:10:06;22.23;;;11.27;;
16101;SDS011;56411;52.964;10.540;2024-03-06T02:12:35;22.47;;;11.43;;
16101;SDS011;56411;52.964;10.540;2024-03-06T02:15:02;22.67;;;11.50;;
16101;SDS011;56411;52.964;10.540;2024-03-06T02:17:29;24.03;;;11.73;;
16101;SDS011;56411;52.964;10.540;2024-03-06T02:19:56;24.40;;;12.53;;
16101;SDS011;56411;52.964;10.540;2024-03-06T02:22:25;23.57;;;12.23;;
16101;SDS011;56411;52.964;10.540;2024-03-06T02:24:53;24.33;;;12.57;;
16101;SDS011;56411;52.964;10.540;2024-03-06T02:27:19;22.53;;;12.30;;
16101;SDS011;56411;52.964;10.540;2024-03-06T02:29:46;23.13;;;12.27;;
16101;SDS011;56411;52.964;10.540;2024-03-06T02:32:14;20.40;;;11.20;;
16101;SDS011;56411;52.964;10.540;2024-03-06T02:34:42;22.57;;;12.00;;
16101;SDS011;56411;52.964;10.540;2024-03-06T02:37:09;21.73;;;11.53;;
16101;SDS011;56411;52.964;10.540;2024-03-06T02:39:38;21.23;;;11.63;;
16101;SDS011;56411;52.964;10.540;2024-03-06T02:42:05;20.13;;;10.43;;
16101;SDS011;56411;52.964;10.540;2024-03-06T02:44:33;20.43;;;10.77;;
16101;SDS011;56411;52.964;10.540;2024-03-06T02:47:00;22.73;;;11.00;;
16101;SDS011;56411;52.964;10.540;2024-03-06T02:49:27;21.03;;;10.70;;
16101;SDS011;56411;52.964;10.540;2024-03-06T02:51:54;20.03;;;10.43;;
16101;SDS011;56411;52.964;10.540;2024-03-06T02:54:22;21.57;;;11.17;;
16101;SDS011;56411;52.964;10.540;2024-03-06T02:56:52;23.37;;;10.60;;
16101;SDS011;56411;52.964;10.540;2024-03-06T02:59:19;22.97;;;11.30;;
16101;SDS011;56411;52.964;10.540;2024-03-06T03:01:46;19.57;;;10.30;;
16101;SDS011;56411;52.964;10.540;2024-03-06T03:04:13;20.13;;;10.77;;
16101;SDS011;56411;52.964;10.540;2024-03-06T03:06:41;19.83;;;10.23;;
16101;SDS011;56411;52.964;10.540;2024-03-06T03:09:07;20.47;;;10.87;;
16101;SDS011;56411;52.964;10.540;2024-03-06T03:11:36;19.93;;;10.77;;
16101;SDS011;56411;52.964;10.540;2024-03-06T03:14:05;22.13;;;10.70;;
16101;SDS011;56411;52.964;10.540;2024-03-06T03:16:32;20.40;;;10.63;;
16101;SDS011;56411;52.964;10.540;2024-03-06T03:19:00;21.27;;;11.43;;
16101;SDS011;56411;52.964;10.540;2024-03-06T03:21:27;21.70;;;10.53;;
16101;SDS011;56411;52.964;10.540;2024-03-06T03:23:55;19.77;;;10.70;;
16101;SDS011;56411;52.964;10.540;2024-03-06T03:26:22;20.47;;;9.93;;
16101;SDS011;56411;52.964;10.540;2024-03-06T03:28:49;20.30;;;10.30;;
16101;SDS011;56411;52.964;10.540;2024-03-06T03:31:17;20.33;;;10.53;;
16101;SDS011;56411;52.964;10.540;2024-03-06T03:33:44;20.17;;;10.20;;
16101;SDS011;56411;52.964;10.540;2024-03-06T03:36:11;19.83;;;10.87;;
16101;SDS011;56411;52.964;10.540;2024-03-06T03:38:38;20.80;;;11.00;;
16101;SDS011;56411;52.964;10.540;2024-03-06T03:41:07;19.53;;;10.33;;
16101;SDS011;56411;52.964;10.540;2024-03-06T03:43:34;19.87;;;10.30;;
16101;SDS011;56411;52.964;10.540;2024-03-06T03:46:01;21.97;;;11.10;;
16101;SDS011;56411;52.964;10.540;2024-03-06T03:48:31;18.97;;;10.27;;
16101;SDS011;56411;52.964;10.540;2024-03-06T03:51:00;19.33;;;10.13;;
16101;SDS011;56411;52.964;10.540;2024-03-06T03:53:28;20.57;;;10.23;;
16101;SDS011;56411;52.964;10.540;2024-03-06T03:55:55;19.10;;;10.60;;
16101;SDS011;56411;52.964;10.540;2024-03-06T03:58:22;21.47;;;10.67;;
16101;SDS011;56411;52.964;10.540;2024-03-06T04:00:49;19.30;;;10.10;;
16101;SDS011;56411;52.964;10.540;2024-03-06T04:03:18;19.50;;;10.70;;
16101;SDS011;56411;52.964;10.540;2024-03-06T04:05:47;21.30;;;10.70;;
16101;SDS011;56411;52.964;10.540;2024-03-06T04:08:14;19.70;;;10.87;;
16101;SDS011;56411;52.964;10.540;2024-03-06T04:10:41;20.00;;;10.67;;
16101;SDS011;56411;52.964;10.540;2024-03-06T04:13:10;20.37;;;10.67;;
16101;SDS011;56411;52.964;10.540;2024-03-06T04:15:37;21.03;;;10.83;;
16101;SDS011;56411;52.964;10.540;2024-03-06T04:18:05;20.73;;;11.07;;
16101;SDS011;56411;52.964;10.540;2024-03-06T04:20:32;21.30;;;11.53;;
16101;SDS011;56411;52.964;10.540;2024-03-06T04:23:00;20.00;;;10.73;;
16101;SDS011;56411;52.964;10.540;2024-03-06T04:25:27;19.13;;;10.03;;
16101;SDS011;56411;52.964;10.540;2024-03-06T04:27:54;21.00;;;10.90;;
16101;SDS011;56411;52.964;10.540;2024-03-06T04:30:22;20.33;;;10.53;;
16101;SDS011;56411;52.964;10.540;2024-03-06T04:32:50;20.67;;;10.67;;
16101;SDS011;56411;52.964;10.540;2024-03-06T04:35:17;22.03;;;11.33;;
16101;SDS011;56411;52.964;10.540;2024-03-06T04:37:44;21.10;;;10.70;;
16101;SDS011;56411;52.964;10.540;2024-03-06T04:40:13;21.00;;;10.40;;
16101;SDS011;56411;52.964;10.540;2024-03-06T04:42:44;20.80;;;10.93;;
16101;SDS011;56411;52.964;10.540;2024-03-06T04:45:14;21.33;;;10.50;;
16101;SDS011;56411;52.964;10.540;2024-03-06T04:47:42;20.97;;;10.67;;
16101;SDS011;56411;52.964;10.540;2024-03-06T04:50:09;20.53;;;11.27;;
16101;SDS011;56411;52.964;10.540;2024-03-06T04:52:36;22.07;;;11.47;;
16101;SDS011;56411;52.964;10.540;2024-03-06T04:55:04;21.70;;;11.80;;
16101;SDS011;56411;52.964;10.540;2024-03-06T04:57:33;20.67;;;10.73;;
16101;SDS011;56411;52.964;10.540;2024-03-06T05:00:01;20.90;;;10.63;;
16101;SDS011;56411;52.964;10.540;2024-03-06T05:02:31;20.37;;;10.70;;
16101;SDS011;56411;52.964;10.540;2024-03-06T05:05:00;21.53;;;10.77;;
16101;SDS011;56411;52.964;10.540;2024-03-06T05:07:27;21.67;;;11.23;;
16101;SDS011;56411;52.964;10.540;2024-03-06T05:09:54;21.23;;;11.47;;
16101;SDS011;56411;52.964;10.540;2024-03-06T05:12:22;21.53;;;10.93;;
16101;SDS011;56411;52.964;10.540;2024-03-06T05:14:50;22.50;;;11.30;;
16101;SDS011;56411;52.964;10.540;2024-03-06T05:17:17;21.20;;;10.87;;
16101;SDS011;56411;52.964;10.540;2024-03-06T05:19:45;22.53;;;11.03;;
16101;SDS011;56411;52.964;10.540;2024-03-06T05:22:12;21.17;;;11.53;;
16101;SDS011;56411;52.964;10.540;2024-03-06T05:24:39;20.80;;;11.00;;
16101;SDS011;56411;52.964;10.540;2024-03-06T05:27:07;21.77;;;11.70;;
16101;SDS011;56411;52.964;10.540;2024-03-06T05:29:35;20.43;;;10.90;;
16101;SDS011;56411;52.964;10.540;2024-03-06T05:32:04;23.07;;;11.73;;
16101;SDS011;56411;52.964;10.540;2024-03-06T05:34:32;23.17;;;12.20;;
16101;SDS011;56411;52.964;10.540;2024-03-06T05:36:59;22.47;;;11.77;;
16101;SDS011;56411;52.964;10.540;2024-03-06T05:39:29;22.20;;;11.63;;
16101;SDS011;56411;52.964;10.540;2024-03-06T05:41:59;25.70;;;13.00;;
16101;SDS011;56411;52.964;10.540;2024-03-06T05:44:27;23.07;;;12.80;;
16101;SDS011;56411;52.964;10.540;2024-03-06T05:46:55;23.73;;;12.33;;
16101;SDS011;56411;52.964;10.540;2024-03-06T05:49:23;21.63;;;12.17;;
16101;SDS011;56411;52.964;10.540;2024-03-06T05:51:50;24.33;;;12.43;;
16101;SDS011;56411;52.964;10.540;2024-03-06T05:54:17;25.43;;;12.93;;
16101;SDS011;56411;52.964;10.540;2024-03-06T05:56:44;22.73;;;12.80;;
16101;SDS011;56411;52.964;10.540;2024-03-06T05:59:11;28.37;;;12.30;;
16101;SDS011;56411;52.964;10.540;2024-03-06T06:01:38;21.63;;;12.90;;
16101;SDS011;56411;52.964;10.540;2024-03-06T06:04:05;23.57;;;12.83;;
16101;SDS011;56411;52.964;10.540;2024-03-06T06:06:35;24.67;;;12.63;;
16101;SDS011;56411;52.964;10.540;2024-03-06T06:09:02;23.37;;;11.93;;
16101;SDS011;56411;52.964;10.540;2024-03-06T06:11:31;22.27;;;12.13;;
16101;SDS011;56411;52.964;10.540;2024-03-06T06:13:58;23.63;;;12.37;;
16101;SDS011;56411;52.964;10.540;2024-03-06T06:16:25;25.57;;;12.67;;
16101;SDS011;56411;52.964;10.540;2024-03-06T06:18:52;24.73;;;12.73;;
16101;SDS011;56411;52.964;10.540;2024-03-06T06:21:19;21.40;;;12.37;;
16101;SDS011;56411;52.964;10.540;2024-03-06T06:23:48;27.07;;;13.23;;
16101;SDS011;56411;52.964;10.540;2024-03-06T06:26:15;23.87;;;12.83;;
16101;SDS011;56411;52.964;10.540;2024-03-06T06:28:42;24.33;;;13.43;;
16101;SDS011;56411;52.964;10.540;2024-03-06T06:31:11;23.67;;;12.70;;
16101;SDS011;56411;52.964;10.540;2024-03-06T06:33:38;23.50;;;12.27;;
16101;SDS011;56411;52.964;10.540;2024-03-06T06:36:06;25.93;;;13.67;;
16101;SDS011;56411;52.964;10.540;2024-03-06T06:38:33;26.93;;;13.07;;
16101;SDS011;56411;52.964;10.540;2024-03-06T06:41:01;24.97;;;13.07;;
16101;SDS011;56411;52.964;10.540;2024-03-06T06:43:28;23.90;;;13.17;;
16101;SDS011;56411;52.964;10.540;2024-03-06T06:45:55;22.87;;;13.13;;
16101;SDS011;56411;52.964;10.540;2024-03-06T06:48:23;25.83;;;14.07;;
16101;SDS011;56411;52.964;10.540;2024-03-06T06:50:49;25.93;;;13.67;;
16101;SDS011;56411;52.964;10.540;2024-03-06T06:53:16;23.97;;;13.30;;
16101;SDS011;56411;52.964;10.540;2024-03-06T06:55:43;26.47;;;13.87;;
16101;SDS011;56411;52.964;10.540;2024-03-06T06:58:12;25.50;;;13.67;;
16101;SDS011;56411;52.964;10.540;2024-03-06T07:00:39;26.33;;;13.40;;
16101;SDS011;56411;52.964;10.540;2024-03-06T07:03:07;25.20;;;14.10;;
16101;SDS011;56411;52.964;10.540;2024-03-06T07:05:34;25.63;;;14.37;;
16101;SDS011;56411;52.964;10.540;2024-03-06T07:08:01;25.53;;;14.73;;
16101;SDS011;56411;52.964;10.540;2024-03-06T07:10:28;26.87;;;14.30;;
16101;SDS011;56411;52.964;10.540;2024-03-06T07:12:55;25.07;;;13.57;;
16101;SDS011;56411;52.964;10.540;2024-03-06T07:15:23;26.77;;;13.87;;
16101;SDS011;56411;52.964;10.540;2024-03-06T07:17:50;27.23;;;14.50;;
16101;SDS011;56411;52.964;10.540;2024-03-06T07:20:17;27.13;;;14.67;;
16101;SDS011;56411;52.964;10.540;2024-03-06T07:22:44;25.70;;;13.90;;
16101;SDS011;56411;52.964;10.540;2024-03-06T07:25:12;26.33;;;14.40;;
16101;SDS011;56411;52.964;10.540;2024-03-06T07:27:39;29.17;;;14.60;;
16101;SDS011;56411;52.964;10.540;2024-03-06T07:30:06;26.17;;;14.80;;
16101;SDS011;56411;52.964;10.540;2024-03-06T07:32:35;25.07;;;14.00;;
16101;SDS011;56411;52.964;10.540;2024-03-06T07:35:02;27.23;;;14.57;;
16101;SDS011;56411;52.964;10.540;2024-03-06T07:37:29;24.37;;;13.77;;
16101;SDS011;56411;52.964;10.540;2024-03-06T07:39:56;24.97;;;14.27;;
16101;SDS011;56411;52.964;10.540;2024-03-06T07:42:24;25.60;;;14.73;;
16101;SDS011;56411;52.964;10.540;2024-03-06T07:44:51;25.73;;;14.23;;
16101;SDS011;56411;52.964;10.540;2024-03-06T07:47:18;25.30;;;14.53;;
16101;SDS011;56411;52.964;10.540;2024-03-06T07:49:47;27.77;;;15.07;;
16101;SDS011;56411;52.964;10.540;2024-03-06T07:52:15;28.70;;;15.03;;
16101;SDS011;56411;52.964;10.540;2024-03-06T07:54:42;26.37;;;14.63;;
16101;SDS011;56411;52.964;10.540;2024-03-06T07:57:09;26.50;;;14.10;;
16101;SDS011;56411;52.964;10.540;2024-03-06T07:59:37;26.90;;;14.40;;
16101;SDS011;56411;52.964;10.540;2024-03-06T08:02:05;27.83;;;15.23;;
16101;SDS011;56411;52.964;10.540;2024-03-06T08:04:32;27.57;;;15.73;;
16101;SDS011;56411;52.964;10.540;2024-03-06T08:07:01;28.93;;;15.93;;
16101;SDS011;56411;52.964;10.540;2024-03-06T08:09:28;28.60;;;15.37;;
16101;SDS011;56411;52.964;10.540;2024-03-06T08:11:55;29.97;;;16.40;;
16101;SDS011;56411;52.964;10.540;2024-03-06T08:14:22;29.93;;;17.60;;
16101;SDS011;56411;52.964;10.540;2024-03-06T08:16:50;29.23;;;16.50;;
16101;SDS011;56411;52.964;10.540;2024-03-06T08:19:17;31.97;;;17.63;;
16101;SDS011;56411;52.964;10.540;2024-03-06T08:21:44;29.83;;;18.37;;
16101;SDS011;56411;52.964;10.540;2024-03-06T08:24:13;30.13;;;17.43;;
16101;SDS011;56411;52.964;10.540;2024-03-06T08:26:42;28.47;;;17.70;;
16101;SDS011;56411;52.964;10.540;2024-03-06T08:29:09;33.23;;;18.23;;
16101;SDS011;56411;52.964;10.540;2024-03-06T08:31:36;28.43;;;16.93;;
16101;SDS011;56411;52.964;10.540;2024-03-06T08:34:04;30.37;;;17.90;;
16101;SDS011;56411;52.964;10.540;2024-03-06T08:36:31;30.10;;;17.70;;
16101;SDS011;56411;52.964;10.540;2024-03-06T08:38:58;28.67;;;17.40;;
16101;SDS011;56411;52.964;10.540;2024-03-06T08:41:27;30.27;;;17.10;;
16101;SDS011;56411;52.964;10.540;2024-03-06T08:43:53;30.47;;;17.87;;
16101;SDS011;56411;52.964;10.540;2024-03-06T08:46:20;28.43;;;16.87;;
16101;SDS011;56411;52.964;10.540;2024-03-06T08:48:48;28.60;;;17.50;;
16101;SDS011;56411;52.964;10.540;2024-03-06T08:51:16;28.37;;;16.67;;
16101;SDS011;56411;52.964;10.540;2024-03-06T08:53:42;30.13;;;17.77;;
16101;SDS011;56411;52.964;10.540;2024-03-06T08:56:09;30.20;;;17.10;;
16101;SDS011;56411;52.964;10.540;2024-03-06T08:58:38;29.70;;;17.63;;
16101;SDS011;56411;52.964;10.540;2024-03-06T09:01:05;31.17;;;17.80;;
16101;SDS011;56411;52.964;10.540;2024-03-06T09:03:32;29.27;;;18.50;;
16101;SDS011;56411;52.964;10.540;2024-03-06T09:05:59;29.70;;;17.20;;
16101;SDS011;56411;52.964;10.540;2024-03-06T09:08:28;29.87;;;18.27;;
16101;SDS011;56411;52.964;10.540;2024-03-06T09:10:55;27.10;;;17.37;;
16101;SDS011;56411;52.964;10.540;2024-03-06T09:13:24;29.53;;;17.73;;
16101;SDS011;56411;52.964;10.540;2024-03-06T09:15:53;27.37;;;16.67;;
16101;SDS011;56411;52.964;10.540;2024-03-06T09:18:20;28.60;;;16.93;;
16101;SDS011;56411;52.964;10.540;2024-03-06T09:20:46;29.87;;;17.47;;
16101;SDS011;56411;52.964;10.540;2024-03-06T09:23:13;31.73;;;17.67;;
16101;SDS011;56411;52.964;10.540;2024-03-06T09:25:41;25.70;;;15.90;;
16101;SDS011;56411;52.964;10.540;2024-03-06T09:28:08;26.80;;;16.57;;
16101;SDS011;56411;52.964;10.540;2024-03-06T09:30:35;27.27;;;16.07;;
16101;SDS011;56411;52.964;10.540;2024-03-06T09:33:04;25.50;;;14.83;;
16101;SDS011;56411;52.964;10.540;2024-03-06T09:35:32;26.77;;;15.30;;
16101;SDS011;56411;52.964;10.540;2024-03-06T09:37:58;25.80;;;15.53;;
16101;SDS011;56411;52.964;10.540;2024-03-06T09:40:26;24.37;;;15.53;;
16101;SDS011;56411;52.964;10.540;2024-03-06T09:42:54;24.67;;;14.80;;
16101;SDS011;56411;52.964;10.540;2024-03-06T09:45:21;24.27;;;15.03;;
16101;SDS011;56411;52.964;10.540;2024-03-06T09:47:49;23.20;;;14.20;;
16101;SDS011;56411;52.964;10.540;2024-03-06T09:50:18;23.87;;;14.27;;
16101;SDS011;56411;52.964;10.540;2024-03-06T09:52:51;23.50;;;14.97;;
16101;SDS011;56411;52.964;10.540;2024-03-06T09:55:19;23.73;;;13.90;;
16101;SDS011;56411;52.964;10.540;2024-03-06T09:57:46;22.83;;;14.10;;
16101;SDS011;56411;52.964;10.540;2024-03-06T10:00:15;23.47;;;14.33;;
16101;SDS011;56411;52.964;10.540;2024-03-06T10:02:46;23.77;;;14.33;;
16101;SDS011;56411;52.964;10.540;2024-03-06T10:05:22;23.83;;;14.60;;
16101;SDS011;56411;52.964;10.540;2024-03-06T10:07:50;24.43;;;14.77;;
16101;SDS011;56411;52.964;10.540;2024-03-06T10:10:18;24.47;;;13.43;;
16101;SDS011;56411;52.964;10.540;2024-03-06T10:12:45;25.33;;;14.23;;
16101;SDS011;56411;52.964;10.540;2024-03-06T10:15:14;24.57;;;13.97;;
16101;SDS011;56411;52.964;10.540;2024-03-06T10:17:41;22.17;;;13.53;;
16101;SDS011;56411;52.964;10.540;2024-03-06T10:20:16;20.80;;;13.47;;
16101;SDS011;56411;52.964;10.540;2024-03-06T10:22:48;22.07;;;13.50;;
16101;SDS011;56411;52.964;10.540;2024-03-06T10:25:17;23.70;;;14.03;;
16101;SDS011;56411;52.964;10.540;2024-03-06T10:27:46;21.00;;;13.00;;
16101;SDS011;56411;52.964;10.540;2024-03-06T10:30:13;23.33;;;13.77;;
16101;SDS011;56411;52.964;10.540;2024-03-06T10:32:41;20.73;;;12.50;;
16101;SDS011;56411;52.964;10.540;2024-03-06T10:35:17;21.63;;;13.53;;
16101;SDS011;56411;52.964;10.540;2024-03-06T10:37:45;22.80;;;13.13;;
16101;SDS011;56411;52.964;10.540;2024-03-06T10:40:15;21.40;;;13.13;;
16101;SDS011;56411;52.964;10.540;2024-03-06T10:42:44;20.57;;;12.77;;
16101;SDS011;56411;52.964;10.540;2024-03-06T10:45:13;20.83;;;12.67;;
16101;SDS011;56411;52.964;10.540;2024-03-06T10:47:41;19.80;;;11.50;;
16101;SDS011;56411;52.964;10.540;2024-03-06T10:50:14;21.60;;;12.63;;
16101;SDS011;56411;52.964;10.540;2024-03-06T10:52:41;22.10;;;13.57;;
16101;SDS011;56411;52.964;10.540;2024-03-06T10:55:13;21.03;;;12.30;;
16101;SDS011;56411;52.964;10.540;2024-03-06T10:57:43;20.60;;;12.57;;
16101;SDS011;56411;52.964;10.540;2024-03-06T11:00:12;21.53;;;12.77;;
16101;SDS011;56411;52.964;10.540;2024-03-06T11:02:45;21.67;;;11.67;;
16101;SDS011;56411;52.964;10.540;2024-03-06T11:05:14;19.93;;;11.50;;
16101;SDS011;56411;52.964;10.540;2024-03-06T11:07:42;18.13;;;10.73;;
16101;SDS011;56411;52.964;10.540;2024-03-06T11:10:09;19.10;;;11.20;;
16101;SDS011;56411;52.964;10.540;2024-03-06T11:12:42;20.30;;;10.73;;
16101;SDS011;56411;52.964;10.540;2024-03-06T11:15:13;19.23;;;11.13;;
16101;SDS011;56411;52.964;10.540;2024-03-06T11:17:41;16.93;;;10.13;;
16101;SDS011;56411;52.964;10.540;2024-03-06T11:20:13;18.20;;;10.53;;
16101;SDS011;56411;52.964;10.540;2024-03-06T11:23:02;19.47;;;10.33;;
16101;SDS011;56411;52.964;10.540;2024-03-06T11:28:29;18.13;;;10.60;;
16101;SDS011;56411;52.964;10.540;2024-03-06T11:30:57;18.87;;;11.83;;
16101;SDS011;56411;52.964;10.540;2024-03-06T11:33:34;19.00;;;10.90;;
16101;SDS011;56411;52.964;10.540;2024-03-06T11:36:15;19.47;;;11.37;;
16101;SDS011;56411;52.964;10.540;2024-03-06T11:38:53;17.80;;;11.00;;
16101;SDS011;56411;52.964;10.540;2024-03-06T11:41:22;17.70;;;10.73;;
16101;SDS011;56411;52.964;10.540;2024-03-06T11:43:52;18.70;;;11.23;;
16101;SDS011;56411;52.964;10.540;2024-03-06T11:46:20;20.50;;;11.43;;
16101;SDS011;56411;52.964;10.540;2024-03-06T11:48:51;18.00;;;11.10;;
16101;SDS011;56411;52.964;10.540;2024-03-06T11:51:20;19.93;;;11.63;;
16101;SDS011;56411;52.964;10.540;2024-03-06T11:53:51;18.93;;;11.33;;
16101;SDS011;56411;52.964;10.540;2024-03-06T11:56:19;19.47;;;11.97;;
16101;SDS011;56411;52.964;10.540;2024-03-06T11:58:47;19.47;;;11.10;;
16101;SDS011;56411;52.964;10.540;2024-03-06T12:01:15;19.03;;;11.73;;
16101;SDS011;56411;52.964;10.540;2024-03-06T12:03:43;19.53;;;12.27;;
16101;SDS011;56411;52.964;10.540;2024-03-06T12:06:10;18.37;;;11.03;;
16101;SDS011;56411;52.964;10.540;2024-03-06T12:08:38;17.77;;;10.93;;
16101;SDS011;56411;52.964;10.540;2024-03-06T12:11:05;18.47;;;11.27;;
16101;SDS011;56411;52.964;10.540;2024-03-06T12:13:33;20.27;;;11.63;;
16101;SDS011;56411;52.964;10.540;2024-03-06T12:16:04;19.40;;;11.60;;
16101;SDS011;56411;52.964;10.540;2024-03-06T12:18:34;18.17;;;11.40;;
16101;SDS011;56411;52.964;10.540;2024-03-06T12:21:01;18.53;;;11.07;;
16101;SDS011;56411;52.964;10.540;2024-03-06T12:23:29;18.83;;;10.90;;
16101;SDS011;56411;52.964;10.540;2024-03-06T12:26:03;17.42;;;11.38;;
16101;SDS011;56411;52.964;10.540;2024-03-06T12:28:31;18.03;;;10.83;;
16101;SDS011;56411;52.964;10.540;2024-03-06T12:31:01;17.90;;;11.27;;
16101;SDS011;56411;52.964;10.540;2024-03-06T12:33:29;18.42;;;11.05;;
16101;SDS011;56411;52.964;10.540;2024-03-06T12:36:04;18.47;;;11.03;;
16101;SDS011;56411;52.964;10.540;2024-03-06T12:38:35;19.30;;;11.50;;
16101;SDS011;56411;52.964;10.540;2024-03-06T12:41:03;18.30;;;11.10;;
16101;SDS011;56411;52.964;10.540;2024-03-06T12:43:31;18.25;;;10.60;;
16101;SDS011;56411;52.964;10.540;2024-03-06T12:45:59;18.63;;;11.63;;
16101;SDS011;56411;52.964;10.540;2024-03-06T12:48:27;19.47;;;11.67;;
16101;SDS011;56411;52.964;10.540;2024-03-06T12:50:55;16.83;;;10.90;;
16101;SDS011;56411;52.964;10.540;2024-03-06T12:53:31;18.83;;;11.90;;
16101;SDS011;56411;52.964;10.540;2024-03-06T12:55:58;17.80;;;11.30;;
16101;SDS011;56411;52.964;10.540;2024-03-06T12:58:25;18.38;;;11.57;;
16101;SDS011;56411;52.964;10.540;2024-03-06T13:00:52;17.57;;;10.93;;
16101;SDS011;56411;52.964;10.540;2024-03-06T13:03:20;19.10;;;11.47;;
16101;SDS011;56411;52.964;10.540;2024-03-06T13:05:47;18.27;;;11.27;;
16101;SDS011;56411;52.964;10.540;2024-03-06T13:08:14;20.23;;;12.80;;
16101;SDS011;56411;52.964;10.540;2024-03-06T13:10:42;19.63;;;12.00;;
16101;SDS011;56411;52.964;10.540;2024-03-06T13:13:10;17.43;;;11.63;;
16101;SDS011;56411;52.964;10.540;2024-03-06T13:15:37;19.60;;;12.53;;
16101;SDS011;56411;52.964;10.540;2024-03-06T13:18:04;19.35;;;11.70;;
16101;SDS011;56411;52.964;10.540;2024-03-06T13:20:32;20.67;;;12.07;;
16101;SDS011;56411;52.964;10.540;2024-03-06T13:23:00;17.30;;;10.90;;
16101;SDS011;56411;52.964;10.540;2024-03-06T13:25:27;18.00;;;11.50;;
16101;SDS011;56411;52.964;10.540;2024-03-06T13:27:55;17.75;;;12.00;;
16101;SDS011;56411;52.964;10.540;2024-03-06T13:30:22;18.95;;;12.23;;
16101;SDS011;56411;52.964;10.540;2024-03-06T13:32:50;18.93;;;12.17;;
16101;SDS011;56411;52.964;10.540;2024-03-06T13:35:17;20.87;;;11.77;;
16101;SDS011;56411;52.964;10.540;2024-03-06T13:37:44;20.60;;;12.87;;
16101;SDS011;56411;52.964;10.540;2024-03-06T13:40:12;19.58;;;12.23;;
16101;SDS011;56411;52.964;10.540;2024-03-06T13:42:39;18.80;;;11.73;;
16101;SDS011;56411;52.964;10.540;2024-03-06T13:45:08;25.07;;;16.00;;
16101;SDS011;56411;52.964;10.540;2024-03-06T13:47:36;40.38;;;27.75;;
16101;SDS011;56411;52.964;10.540;2024-03-06T13:50:04;51.13;;;36.77;;
16101;SDS011;56411;52.964;10.540;2024-03-06T13:52:33;34.40;;;24.08;;
16101;SDS011;56411;52.964;10.540;2024-03-06T13:55:00;34.43;;;24.17;;
16101;SDS011;56411;52.964;10.540;2024-03-06T13:57:29;26.73;;;18.60;;
16101;SDS011;56411;52.964;10.540;2024-03-06T13:59:58;22.60;;;15.73;;
16101;SDS011;56411;52.964;10.540;2024-03-06T14:02:27;21.93;;;13.07;;
16101;SDS011;56411;52.964;10.540;2024-03-06T14:04:54;27.55;;;18.95;;
16101;SDS011;56411;52.964;10.540;2024-03-06T14:07:21;19.20;;;12.90;;
16101;SDS011;56411;52.964;10.540;2024-03-06T14:09:48;22.10;;;12.98;;
16101;SDS011;56411;52.964;10.540;2024-03-06T14:12:16;20.27;;;13.57;;
16101;SDS011;56411;52.964;10.540;2024-03-06T14:14:43;20.25;;;13.20;;
16101;SDS011;56411;52.964;10.540;2024-03-06T14:17:10;21.48;;;13.25;;